Time;durP1;ratioP1;P1;durP2;ratioP2;P2;SDS_P1;SDS_P2;PMS_P1;PMS_P2;Temp;Humidity;BMP_temperature;BMP_pressure;BME280_temperature;BME280_humidity;BME280_pressure;Samples;Min_cycle;Max_cycle;Signal;HPM_P1;HPM_P2
2022/11/02 00:02:21;;;;;;;7.28;2.10;;;;;;;12.28;100.00;150740.33;1720266;82;21086;-59
2022/11/02 00:04:48;;;;;;;7.42;2.40;;;;;;;12.29;100.00;150742.92;1746557;80;21530;-59
2022/11/02 00:07:15;;;;;;;6.95;2.27;;;;;;;12.30;100.00;150744.20;1746482;80;21582;-59
2022/11/02 00:09:43;;;;;;;6.33;2.05;;;;;;;12.30;100.00;150745.52;1754757;80;21020;-58
2022/11/02 00:12:10;;;;;;;4.12;2.10;;;;;;;12.32;100.00;150749.39;1777326;79;21211;-59
2022/11/02 00:14:38;;;;;;;7.42;2.33;;;;;;;12.34;100.00;150753.31;1745027;82;21058;-59
2022/11/02 00:17:07;;;;;;;4.05;2.20;;;;;;;12.32;100.00;150750.72;1744873;82;21452;-58
2022/11/02 00:19:35;;;;;;;7.67;2.60;;;;;;;12.34;100.00;150753.31;1744943;82;21055;-58
2022/11/02 00:22:02;;;;;;;8.18;2.70;;;;;;;12.31;100.00;150748.11;1763579;81;21010;-58
2022/11/02 00:24:30;;;;;;;6.92;2.37;;;;;;;12.31;100.00;150748.11;1764346;81;22163;-58
2022/11/02 00:26:57;;;;;;;7.83;2.62;;;;;;;12.30;100.00;150744.20;1764168;81;21463;-57
2022/11/02 00:29:24;;;;;;;7.90;3.10;;;;;;;12.29;100.00;150741.59;1764266;81;21046;-57
2022/11/02 00:31:51;;;;;;;5.92;2.33;;;;;;;12.27;100.00;150737.73;1764342;81;20903;-58
2022/11/02 00:34:19;;;;;;;6.83;2.50;;;;;;;12.27;100.00;150736.41;1764244;81;21609;-58
2022/11/02 00:36:46;;;;;;;4.28;2.40;;;;;;;12.26;100.00;150735.09;1764137;81;21949;-58
2022/11/02 00:39:13;;;;;;;4.65;2.02;;;;;;;12.25;100.00;150732.50;1764132;81;21061;-58
2022/11/02 00:41:41;;;;;;;6.90;2.27;;;;;;;12.23;100.00;150727.30;1764076;81;21022;-58
2022/11/02 00:44:09;;;;;;;12.33;2.50;;;;;;;12.22;100.00;150724.70;1764117;81;21479;-57
2022/11/02 00:46:36;;;;;;;8.48;2.50;;;;;;;12.21;100.00;150722.09;1764178;81;21018;-58
2022/11/02 00:49:07;;;;;;;6.62;2.50;;;;;;;12.20;100.00;150718.23;1764210;81;21499;-57
2022/11/02 00:51:34;;;;;;;7.05;2.42;;;;;;;12.17;100.00;150711.72;1731938;81;21045;-57
2022/11/02 00:54:03;;;;;;;5.70;2.47;;;;;;;12.16;100.00;150709.13;1762934;81;21037;-57
2022/11/02 00:56:29;;;;;;;4.78;2.45;;;;;;;12.14;100.00;150703.94;1764233;81;20986;-57
2022/11/02 00:58:58;;;;;;;4.92;2.50;;;;;;;12.12;100.00;150698.73;1764196;81;21482;-58
2022/11/02 01:01:26;;;;;;;6.10;2.45;;;;;;;12.10;100.00;150693.55;1764314;81;21239;-58
2022/11/02 01:03:56;;;;;;;6.25;2.72;;;;;;;12.08;100.00;150688.36;1763898;81;20942;-58
2022/11/02 01:06:23;;;;;;;9.33;2.90;;;;;;;12.06;100.00;150684.44;1764312;81;21033;-57
2022/11/02 01:08:52;;;;;;;8.13;2.87;;;;;;;12.06;100.00;150683.16;1764124;81;21017;-58
2022/11/02 01:11:22;;;;;;;7.35;2.95;;;;;;;12.04;100.00;150680.53;1792981;79;21002;-59
2022/11/02 01:13:51;;;;;;;5.60;2.83;;;;;;;12.06;100.00;150683.16;1765992;79;21896;-58
2022/11/02 01:16:19;;;;;;;7.62;3.02;;;;;;;12.07;100.00;150685.77;1764158;81;21268;-58
2022/11/02 01:18:53;;;;;;;7.40;3.20;;;;;;;12.07;100.00;150685.77;1764271;81;21073;-58
2022/11/02 01:21:22;;;;;;;7.80;3.08;;;;;;;12.08;100.00;150689.63;1764072;81;21050;-58
2022/11/02 01:23:49;;;;;;;6.95;3.50;;;;;;;12.09;100.00;150690.95;1763810;81;21116;-57
2022/11/02 01:26:16;;;;;;;8.70;3.85;;;;;;;12.09;100.00;150690.95;1764241;81;21304;-58
2022/11/02 01:28:44;;;;;;;8.40;3.65;;;;;;;12.11;100.00;150696.14;1764144;81;21030;-58
2022/11/02 01:31:12;;;;;;;8.30;3.87;;;;;;;12.12;100.00;150700.02;1764183;81;21042;-57
2022/11/02 01:33:44;;;;;;;6.83;3.95;;;;;;;12.15;100.00;150706.53;1764360;81;21098;-57
2022/11/02 01:36:12;;;;;;;12.90;4.25;;;;;;;12.19;100.00;150716.91;1764553;81;21026;-58
2022/11/02 01:38:41;;;;;;;10.40;4.12;;;;;;;12.20;100.00;150719.50;1764140;81;21013;-58
2022/11/02 01:41:09;;;;;;;9.00;4.28;;;;;;;12.22;100.00;150724.70;1764246;81;21026;-58
2022/11/02 01:43:40;;;;;;;12.28;4.20;;;;;;;12.27;100.00;150736.41;1764085;81;22124;-58
2022/11/02 01:46:12;;;;;;;8.95;3.92;;;;;;;12.29;100.00;150742.92;1733024;81;21003;-60
2022/11/02 01:49:08;;;;;;;11.10;4.87;;;;;;;12.32;100.00;150750.72;1764194;81;21567;-58
2022/11/02 01:51:42;;;;;;;10.50;4.40;;;;;;;12.34;100.00;150754.58;1763629;81;21227;-60
2022/11/02 01:54:16;;;;;;;10.43;3.83;;;;;;;12.36;100.00;150759.78;1764395;81;21002;-59
2022/11/02 01:56:48;;;;;;;7.90;4.53;;;;;;;12.40;100.00;150768.89;1764341;81;21218;-59
2022/11/02 01:59:20;;;;;;;10.30;4.30;;;;;;;12.43;100.00;150778.00;1764076;81;21034;-59
2022/11/02 02:01:48;;;;;;;11.57;4.62;;;;;;;12.45;100.00;150781.88;1764478;81;21066;-58
2022/11/02 02:04:15;;;;;;;8.90;4.17;;;;;;;12.45;100.00;150783.19;1764261;81;21383;-59
2022/11/02 02:06:42;;;;;;;10.03;4.47;;;;;;;12.47;100.00;150787.06;1764174;81;21541;-59
2022/11/02 02:09:09;;;;;;;12.03;4.30;;;;;;;12.50;100.00;150793.58;1764237;81;21473;-59
2022/11/02 02:11:38;;;;;;;9.68;4.33;;;;;;;12.51;100.00;150797.50;1766179;79;21081;-58
2022/11/02 02:14:15;;;;;;;7.70;3.83;;;;;;;12.53;100.00;150802.69;1764154;81;21011;-58
2022/11/02 02:17:21;;;;;;;7.10;4.03;;;;;;;12.53;100.00;150802.69;1763917;81;21132;-58
2022/11/02 02:20:00;;;;;;;11.33;3.98;;;;;;;12.54;100.00;150803.97;1764078;81;21046;-59
2022/11/02 02:22:52;;;;;;;12.58;4.00;;;;;;;12.53;100.00;150802.69;1764229;81;21034;-59
2022/11/02 02:26:04;;;;;;;9.08;4.15;;;;;;;12.54;100.00;150805.28;1763998;81;20977;-58
2022/11/02 02:28:52;;;;;;;9.38;3.98;;;;;;;12.53;100.00;150802.69;1764138;81;21102;-58
2022/11/02 02:31:36;;;;;;;8.93;3.77;;;;;;;12.55;100.00;150807.89;1764180;81;21995;-59
2022/11/02 02:34:19;;;;;;;11.43;4.08;;;;;;;12.54;100.00;150805.28;1764017;81;21419;-59
2022/11/02 02:36:57;;;;;;;8.63;3.77;;;;;;;12.53;100.00;150802.69;1764045;81;21045;-58
2022/11/02 02:39:46;;;;;;;7.20;3.80;;;;;;;12.52;100.00;150800.09;1764381;81;21042;-59
2022/11/02 02:42:23;;;;;;;6.42;3.77;;;;;;;12.51;100.00;150796.17;1764147;81;21045;-58
2022/11/02 02:45:18;;;;;;;8.65;4.45;;;;;;;12.49;100.00;150790.98;1764074;81;22085;-58
2022/11/02 02:47:59;;;;;;;9.08;3.98;;;;;;;12.47;100.00;150787.06;1763919;81;20986;-58
2022/11/02 02:50:33;;;;;;;7.17;4.08;;;;;;;12.46;100.00;150785.80;1764215;81;21082;-59
2022/11/02 02:53:01;;;;;;;8.40;4.00;;;;;;;12.46;100.00;150784.47;1733182;81;20985;-58
2022/11/02 02:55:33;;;;;;;9.30;4.12;;;;;;;12.45;100.00;150781.88;1732006;81;21105;-58
2022/11/02 02:58:01;;;;;;;13.10;5.12;;;;;;;12.46;100.00;150784.47;1764119;81;21589;-58
2022/11/02 03:00:29;;;;;;;8.40;4.30;;;;;;;12.45;100.00;150783.19;1764161;81;21050;-59
2022/11/02 03:03:02;;;;;;;11.22;5.08;;;;;;;12.46;100.00;150784.47;1764281;81;20946;-58
2022/11/02 03:05:32;;;;;;;13.70;4.85;;;;;;;12.49;100.00;150792.31;1733833;81;21030;-58
2022/11/02 03:08:07;;;;;;;11.25;5.08;;;;;;;12.52;100.00;150800.09;1764436;81;21073;-59
2022/11/02 03:11:02;;;;;;;13.53;5.00;;;;;;;12.56;100.00;150810.48;1782688;79;21891;-58
2022/11/02 03:13:58;;;;;;;14.60;4.95;;;;;;;12.61;100.00;150823.47;1772072;79;21439;-59
2022/11/02 03:16:45;;;;;;;13.48;5.00;;;;;;;12.65;100.00;150831.25;1765944;81;21038;-58
2022/11/02 03:19:24;;;;;;;13.20;6.28;;;;;;;12.68;100.00;150839.05;1787111;78;21026;-58
2022/11/02 03:22:02;;;;;;;12.40;5.62;;;;;;;12.70;100.00;150845.56;1702106;82;20958;-59
2022/11/02 03:24:37;;;;;;;16.87;6.42;;;;;;;12.71;100.00;150846.84;1779351;79;21193;-57
2022/11/02 03:27:37;;;;;;;11.63;5.75;;;;;;;12.74;100.00;146030.94;1778943;79;21042;-59
2022/11/02 03:30:11;;;;;;;15.93;7.00;;;;;;;12.75;100.00;133439.09;1779006;80;21027;-58
2022/11/02 03:33:04;;;;;;;16.12;6.42;;;;;;;12.77;100.00;123030.69;1779066;80;21978;-58
2022/11/02 03:36:02;;;;;;;18.32;7.37;;;;;;;12.79;100.00;110753.41;1778683;79;21050;-58
2022/11/02 03:38:45;;;;;;;18.20;7.50;;;;;;;12.81;100.00;99550.87;1774827;80;21495;-59
2022/11/02 03:41:13;;;;;;;12.00;6.35;;;;;;;12.83;100.00;93706.66;1779010;79;20979;-57
2022/11/02 03:43:40;;;;;;;18.70;7.22;;;;;;;12.82;100.00;89926.57;1779138;79;21077;-58
2022/11/02 03:46:08;;;;;;;18.60;7.50;;;;;;;12.82;100.00;85637.86;1778952;79;21475;-58
2022/11/02 03:48:41;;;;;;;16.27;7.58;;;;;;;12.82;100.00;79813.77;1779311;79;21293;-58
2022/11/02 03:51:13;;;;;;;11.10;6.87;;;;;;;12.82;100.00;74512.14;1779044;79;21218;-58
2022/11/02 03:53:54;;;;;;;21.45;7.75;;;;;;;12.83;100.00;70926.61;1779499;79;21048;-58
2022/11/02 03:56:31;;;;;;;18.75;6.87;;;;;;;12.83;100.00;67001.91;1773604;79;20995;-59
2022/11/02 03:58:59;;;;;;;13.98;7.55;;;;;;;12.83;100.00;62571.95;1778913;80;21677;-60
2022/11/02 04:01:26;;;;;;;12.90;6.70;;;;;;;12.82;100.00;61170.55;1779171;79;21014;-60
2022/11/02 04:03:53;;;;;;;14.63;6.80;;;;;;;12.81;100.00;59569.52;1779118;79;21141;-59
2022/11/02 04:06:20;;;;;;;12.03;6.05;;;;;;;12.81;100.00;57635.27;1779173;79;20987;-57
2022/11/02 04:08:48;;;;;;;13.53;6.05;;;;;;;12.81;100.00;56274.70;1746071;80;21411;-59
2022/11/02 04:19:26;;;;;;;11.48;6.55;;;;;;;12.81;100.00;53046.77;1731815;82;21248;-57
2022/11/02 04:19:28;;;;;;;13.40;5.47;;;;;;;12.79;100.00;53554.81;1728218;82;21045;-58
2022/11/02 04:27:32;;;;;;;12.53;5.03;;;;;;;12.79;100.00;52366.20;1741086;82;21056;-58
2022/11/02 04:29:59;;;;;;;10.23;4.97;;;;;;;12.80;100.00;52027.60;1740913;82;21110;-58
2022/11/02 04:35:15;;;;;;;15.98;4.40;;;;;;;12.84;100.00;50673.44;1741139;82;21084;-59
2022/11/02 04:40:30;;;;;;;12.88;4.40;;;;;;;12.87;100.00;51184.88;1741101;82;21071;-58
2022/11/02 04:42:57;;;;;;;15.08;4.70;;;;;;;12.90;100.00;51017.90;1740921;82;21206;-58
2022/11/02 04:45:24;;;;;;;11.93;4.53;;;;;;;12.92;100.00;51698.28;1740952;82;21037;-58
2022/11/02 04:47:52;;;;;;;9.03;4.30;;;;;;;12.93;100.00;52548.66;1741139;82;21010;-58
2022/11/02 04:50:19;;;;;;;11.65;3.83;;;;;;;12.96;100.00;53230.39;1776209;80;21060;-62
2022/11/02 04:52:46;;;;;;;10.15;4.37;;;;;;;12.98;100.00;54252.11;1776175;80;21020;-62
2022/11/02 04:55:13;;;;;;;10.75;4.30;;;;;;;13.00;100.00;56633.32;1776412;80;21258;-60
2022/11/02 04:57:45;;;;;;;15.03;4.85;;;;;;;13.01;100.00;59404.00;1776090;80;21041;-59
2022/11/02 05:00:15;;;;;;;10.80;4.00;;;;;;;13.03;100.00;61101.77;1776029;80;21108;-61
2022/11/02 05:02:42;;;;;;;14.40;4.08;;;;;;;13.06;100.00;62258.61;1776201;80;21439;-60
2022/11/02 05:05:11;;;;;;;8.85;3.47;;;;;;;13.09;100.00;63280.62;1775829;80;21037;-61
2022/11/02 05:07:38;;;;;;;11.65;3.70;;;;;;;13.12;100.00;66012.14;1776302;80;21133;-61
2022/11/02 05:10:15;;;;;;;9.63;4.42;;;;;;;13.14;100.00;69256.47;1778067;80;21397;-59
2022/11/02 05:12:47;;;;;;;11.48;3.90;;;;;;;13.18;100.00;73361.20;1796264;79;21031;-60
2022/11/02 05:15:14;;;;;;;12.63;3.60;;;;;;;13.20;100.00;78323.75;1814113;79;21028;-60
2022/11/02 05:17:42;;;;;;;11.35;3.87;;;;;;;13.25;100.00;81584.83;1814262;79;20981;-60
2022/11/02 05:20:10;;;;;;;7.40;3.42;;;;;;;13.28;100.00;87591.37;1814163;79;21455;-60
2022/11/02 05:22:42;;;;;;;12.58;4.33;;;;;;;13.35;100.00;94991.47;1817377;78;21502;-59
2022/11/02 05:25:10;;;;;;;14.78;4.25;;;;;;;13.38;100.00;107061.30;1820224;78;21041;-59
2022/11/02 05:27:37;;;;;;;13.18;3.77;;;;;;;13.35;100.00;125405.16;1820258;78;21489;-59
2022/11/02 05:30:06;;;;;;;8.85;3.85;;;;;;;13.36;100.00;136358.19;1820258;78;21067;-59
2022/11/02 05:32:34;;;;;;;10.72;4.42;;;;;;;13.35;100.00;149648.19;1820491;78;21826;-59
2022/11/02 05:35:02;;;;;;;8.23;3.83;;;;;;;13.34;100.00;151005.44;1820100;78;21083;-59
2022/11/02 05:37:29;;;;;;;13.98;4.35;;;;;;;13.36;100.00;151010.64;1820324;78;21450;-59
2022/11/02 05:39:57;;;;;;;12.13;4.00;;;;;;;13.37;100.00;151013.23;1820292;78;20973;-60
2022/11/02 05:42:24;;;;;;;12.03;3.83;;;;;;;13.41;100.00;151022.34;1820044;78;21497;-59
2022/11/02 05:44:52;;;;;;;16.35;4.05;;;;;;;13.45;100.00;151034.13;1820008;78;21225;-60
2022/11/02 05:47:19;;;;;;;9.38;3.98;;;;;;;13.46;100.00;151036.72;1820117;78;21028;-58
2022/11/02 05:49:46;;;;;;;9.63;3.50;;;;;;;13.49;100.00;151041.92;1820183;78;21079;-58
2022/11/02 05:52:13;;;;;;;11.38;3.55;;;;;;;13.50;100.00;151044.52;1820150;78;20905;-58
2022/11/02 05:54:40;;;;;;;10.23;3.40;;;;;;;13.45;100.00;151034.13;1820007;78;21041;-59
2022/11/02 05:57:07;;;;;;;12.53;3.45;;;;;;;13.46;100.00;151036.72;1820138;78;21893;-59
2022/11/02 05:59:33;;;;;;;11.20;3.75;;;;;;;13.52;100.00;151051.03;1820094;78;21040;-59
2022/11/02 06:02:00;;;;;;;12.15;4.37;;;;;;;13.57;100.00;151062.70;1819980;78;21015;-59
2022/11/02 06:04:27;;;;;;;9.98;3.72;;;;;;;13.60;100.00;151070.55;1790868;78;21595;-59
2022/11/02 06:06:54;;;;;;;6.47;3.55;;;;;;;13.66;100.00;151086.14;1820110;78;21044;-60
2022/11/02 06:09:22;;;;;;;9.00;4.65;;;;;;;13.72;100.00;151101.73;1790705;78;21433;-58
2022/11/02 06:11:50;;;;;;;12.20;4.22;;;;;;;13.79;100.00;151118.66;1815032;79;21042;-58
2022/11/02 06:14:18;;;;;;;16.77;5.00;;;;;;;13.86;100.00;151135.58;1794536;80;20969;-58
2022/11/02 06:16:45;;;;;;;11.88;4.87;;;;;;;13.93;100.00;151153.77;1794564;80;21498;-59
2022/11/02 06:19:14;;;;;;;10.98;4.80;;;;;;;14.00;100.00;151171.97;1794908;79;20922;-59
2022/11/02 06:21:42;;;;;;;14.73;5.17;;;;;;;14.08;100.00;151190.20;1795102;79;21260;-58
2022/11/02 06:24:08;;;;;;;7.80;5.20;;;;;;;14.15;100.00;151208.41;1797211;79;21462;-58
2022/11/02 06:26:36;;;;;;;8.85;5.30;;;;;;;14.21;100.00;151224.00;1793318;79;20983;-58
2022/11/02 06:29:04;;;;;;;12.07;6.92;;;;;;;14.24;100.00;151231.81;1773580;78;21020;-58
2022/11/02 06:31:31;;;;;;;17.67;7.50;;;;;;;14.25;100.00;151233.13;1790251;79;21163;-58
2022/11/02 06:33:58;;;;;;;16.60;8.78;;;;;;;14.22;100.00;151226.59;1782154;79;21445;-58
2022/11/02 06:36:24;;;;;;;19.27;9.98;;;;;;;14.17;100.00;151213.59;1787031;79;21059;-58
2022/11/02 06:38:51;;;;;;;18.10;9.15;;;;;;;14.09;100.00;151192.81;1788535;79;21051;-58
2022/11/02 06:41:18;;;;;;;18.37;10.35;;;;;;;14.09;100.00;151194.08;1789696;79;21489;-58
2022/11/02 06:43:46;;;;;;;17.40;9.88;;;;;;;14.14;100.00;151207.08;1790393;78;21046;-58
2022/11/02 06:46:13;;;;;;;15.88;10.10;;;;;;;14.13;100.00;151203.20;1767668;79;21150;-58
2022/11/02 06:48:40;;;;;;;18.45;10.95;;;;;;;14.15;100.00;151208.41;1768356;79;21505;-62
2022/11/02 06:51:06;;;;;;;18.92;9.88;;;;;;;14.16;100.00;151211.00;1775351;79;21027;-59
2022/11/02 06:53:33;;;;;;;29.50;11.97;;;;;;;14.21;100.00;151224.00;1755291;79;21024;-60
2022/11/02 06:56:01;;;;;;;19.57;10.82;;;;;;;14.26;100.00;151237.05;1782447;79;21105;-61
2022/11/02 06:58:28;;;;;;;18.70;11.30;;;;;;;14.29;100.00;151243.53;1765739;80;21803;-60
2022/11/02 07:01:00;;;;;;;20.60;10.82;;;;;;;14.31;100.00;151248.72;1796699;78;21024;-61
2022/11/02 07:03:28;;;;;;;22.80;12.85;;;;;;;14.30;100.00;151247.45;1760385;80;21295;-61
2022/11/02 07:05:56;;;;;;;24.55;12.43;;;;;;;14.31;100.00;151250.05;1781070;79;21090;-61
2022/11/02 07:08:23;;;;;;;26.68;12.80;;;;;;;14.34;100.00;151256.53;1758091;79;21042;-62
2022/11/02 07:10:50;;;;;;;22.07;11.93;;;;;;;14.38;100.00;151265.66;1777125;79;21222;-62
2022/11/02 07:13:18;;;;;;;22.82;12.88;;;;;;;14.35;100.00;151259.12;1801337;79;21024;-62
2022/11/02 07:15:56;;;;;;;19.50;11.63;;;;;;;14.36;100.00;151260.45;1802506;79;21024;-61
2022/11/02 07:18:44;;;;;;;19.92;12.00;;;;;;;14.39;100.00;151268.25;1765317;79;37665;-61
2022/11/02 07:21:24;;;;;;;21.75;12.60;;;;;;;14.44;100.00;151281.25;1744698;81;21033;-60
2022/11/02 07:23:55;;;;;;;25.62;12.68;;;;;;;14.48;100.00;151291.70;1742582;80;21210;-60
2022/11/02 07:26:33;;;;;;;20.20;12.33;;;;;;;14.55;100.00;151308.58;1769139;80;20999;-60
2022/11/02 07:29:09;;;;;;;20.62;12.10;;;;;;;14.58;100.00;151316.38;1777695;80;21585;-60
2022/11/02 07:31:46;;;;;;;20.77;13.28;;;;;;;14.61;100.00;151325.50;1772191;80;21005;-60
2022/11/02 07:34:14;;;;;;;25.10;13.25;;;;;;;14.68;100.00;151342.44;1778447;80;20980;-60
2022/11/02 07:36:42;;;;;;;24.52;12.82;;;;;;;14.75;100.00;151360.69;1764645;80;21111;-60
2022/11/02 07:39:09;;;;;;;17.57;11.97;;;;;;;14.79;100.00;151369.81;1761188;80;21386;-60
2022/11/02 07:41:36;;;;;;;21.55;12.55;;;;;;;14.84;100.00;151382.81;1773504;80;21063;-62
2022/11/02 07:44:04;;;;;;;22.10;12.50;;;;;;;14.88;100.00;151393.22;1780932;78;21012;-60
2022/11/02 07:46:33;;;;;;;21.50;12.63;;;;;;;14.95;99.53;151408.88;1783439;80;21028;-59
2022/11/02 07:49:00;;;;;;;23.15;12.28;;;;;;;15.00;98.59;151421.88;1775899;79;22151;-61
2022/11/02 07:51:27;;;;;;;22.80;12.10;;;;;;;15.04;97.92;151432.28;1774767;80;21024;-62
2022/11/02 07:53:54;;;;;;;22.05;11.63;;;;;;;15.08;97.15;151442.69;1755954;81;21508;-60
2022/11/02 07:56:34;;;;;;;24.82;11.43;;;;;;;15.16;96.24;151463.56;1781201;80;21082;-60
2022/11/02 07:59:02;;;;;;;20.70;11.80;;;;;;;15.22;94.61;151476.56;1757159;78;20948;-60
2022/11/02 08:01:29;;;;;;;25.68;12.10;;;;;;;15.25;91.88;151485.69;1774990;79;21221;-62
2022/11/02 08:03:57;;;;;;;18.60;10.20;;;;;;;15.25;89.29;151484.37;1761027;79;21016;-61
2022/11/02 08:06:24;;;;;;;21.55;11.50;;;;;;;15.26;88.21;151486.97;1784937;79;21150;-61
2022/11/02 08:08:53;;;;;;;22.20;12.15;;;;;;;15.29;86.49;151496.09;1786125;78;21077;-61
2022/11/02 08:11:20;;;;;;;19.65;11.48;;;;;;;15.30;85.66;151498.70;1767034;79;21080;-61
2022/11/02 08:13:47;;;;;;;24.65;12.65;;;;;;;15.34;84.70;151507.78;1776533;80;21232;-61
2022/11/02 08:16:15;;;;;;;18.52;11.50;;;;;;;15.37;84.10;151514.31;1780099;79;21065;-61
2022/11/02 08:18:44;;;;;;;23.62;13.20;;;;;;;15.38;83.51;151518.23;1774772;79;21439;-60
2022/11/02 08:21:12;;;;;;;22.70;12.98;;;;;;;15.38;82.46;151518.23;1776603;78;21078;-59
2022/11/02 08:23:38;;;;;;;24.50;12.95;;;;;;;15.37;82.00;151515.64;1784225;78;21508;-61
2022/11/02 08:26:06;;;;;;;21.42;13.43;;;;;;;15.38;81.65;151518.23;1784097;79;21397;-61
2022/11/02 08:28:38;;;;;;;24.12;13.43;;;;;;;15.41;81.41;151526.05;1777513;78;21039;-60
2022/11/02 08:31:06;;;;;;;25.68;12.75;;;;;;;15.42;80.91;151528.66;1785410;78;21106;-60
2022/11/02 08:36:18;;;;;;;26.12;14.83;;;;;;;15.49;79.26;151545.58;1793843;79;20948;-62
2022/11/02 08:38:46;;;;;;;22.90;13.15;;;;;;;15.50;78.71;151548.19;1772727;79;21879;-60
2022/11/02 08:41:14;;;;;;;27.22;13.58;;;;;;;15.51;78.55;151549.47;1782730;79;21102;-60
2022/11/02 08:43:41;;;;;;;21.10;13.45;;;;;;;15.51;78.67;151549.47;1776856;78;21076;-61
2022/11/02 08:46:09;;;;;;;28.15;14.75;;;;;;;15.55;78.35;151561.20;1775332;79;21023;-61
2022/11/02 08:48:36;;;;;;;24.07;13.43;;;;;;;15.60;78.50;151574.22;1791594;79;21494;-61
2022/11/02 08:51:04;;;;;;;24.43;12.85;;;;;;;15.67;78.19;151591.14;1785607;79;22175;-61
2022/11/02 08:53:32;;;;;;;26.30;14.15;;;;;;;15.74;77.74;151609.36;1778476;79;21064;-60
2022/11/02 08:55:59;;;;;;;23.02;13.53;;;;;;;15.82;77.26;151627.63;1785212;79;21047;-61
2022/11/02 08:58:27;;;;;;;29.05;15.00;;;;;;;15.90;76.60;151648.50;1801117;78;21353;-61
2022/11/02 09:00:55;;;;;;;30.43;14.53;;;;;;;15.93;76.31;151656.31;1759836;79;20988;-61
2022/11/02 09:03:23;;;;;;;23.32;13.98;;;;;;;16.00;76.12;151673.25;1773880;79;21234;-61
2022/11/02 09:05:58;;;;;;;25.52;14.28;;;;;;;16.06;75.38;151688.88;1788278;78;21051;-61
2022/11/02 09:08:26;;;;;;;26.05;14.87;;;;;;;16.08;75.14;151692.81;1799051;78;21087;-61
2022/11/02 09:10:53;;;;;;;27.90;15.55;;;;;;;16.09;74.64;151696.69;1771955;80;21525;-60
2022/11/02 09:13:24;;;;;;;27.40;14.68;;;;;;;16.08;74.09;151694.08;1712301;79;21075;-60
2022/11/02 09:15:53;;;;;;;25.05;13.75;;;;;;;16.10;74.28;151698.02;1784095;79;21153;-61
2022/11/02 09:18:20;;;;;;;26.77;14.30;;;;;;;16.13;74.16;151705.81;1784844;78;21093;-61
2022/11/02 09:20:47;;;;;;;27.20;15.13;;;;;;;16.16;74.15;151713.62;1768271;79;21015;-61
2022/11/02 09:23:16;;;;;;;27.25;16.07;;;;;;;16.24;74.25;151733.17;1772967;78;21059;-61
2022/11/02 09:25:45;;;;;;;29.32;15.68;;;;;;;16.33;73.79;151756.61;1765456;79;21690;-61
2022/11/02 09:28:14;;;;;;;25.15;14.53;;;;;;;16.40;73.07;151773.55;1767408;79;21247;-61
2022/11/02 09:30:41;;;;;;;23.70;14.70;;;;;;;16.39;72.80;151770.95;1776314;79;21446;-61
2022/11/02 09:33:08;;;;;;;31.50;15.93;;;;;;;16.40;72.64;151773.55;1767736;79;21055;-61
2022/11/02 09:35:41;;;;;;;25.92;15.50;;;;;;;16.41;72.52;151777.48;1754668;80;21472;-60
2022/11/02 09:38:09;;;;;;;30.25;14.58;;;;;;;16.45;72.55;151786.56;1769609;79;21045;-60
2022/11/02 09:41:00;;;;;;;29.57;14.80;;;;;;;16.50;72.00;151799.64;1770689;79;21207;-60
2022/11/02 09:43:59;;;;;;;26.95;15.13;;;;;;;16.52;71.74;151804.84;1770511;79;21076;-60
2022/11/02 09:46:37;;;;;;;23.75;13.53;;;;;;;16.56;71.78;151815.27;1777618;78;21073;-60
2022/11/02 09:49:12;;;;;;;26.25;12.50;;;;;;;16.68;71.61;151843.91;1756104;79;21463;-59
2022/11/02 09:51:50;;;;;;;25.23;13.13;;;;;;;16.77;70.77;151867.41;1776745;79;21631;-61
2022/11/02 09:54:28;;;;;;;21.57;12.65;;;;;;;16.82;70.18;151879.14;1776095;79;21224;-60
2022/11/02 09:57:00;;;;;;;23.57;12.55;;;;;;;16.85;70.10;151886.95;1777800;79;21014;-62
2022/11/02 09:59:27;;;;;;;24.05;12.68;;;;;;;16.94;69.82;151909.13;1761248;79;21494;-61
2022/11/02 10:02:37;;;;;;;24.80;13.08;;;;;;;16.99;69.73;151922.19;1765449;79;21041;-60
2022/11/02 10:05:33;;;;;;;19.42;11.90;;;;;;;16.99;69.02;151923.47;1763394;79;21553;-60
2022/11/02 10:08:47;;;;;;;21.07;12.18;;;;;;;17.01;69.00;151928.67;1746672;79;21085;-61
2022/11/02 10:11:53;;;;;;;24.02;12.50;;;;;;;17.07;68.89;151941.75;1754048;79;20956;-59
2022/11/02 10:14:32;;;;;;;;;;;;;;;17.12;68.62;151956.05;1713462;82;21477;-61
2022/11/02 10:17:13;;;;;;;21.82;12.25;;;;;;;17.15;68.56;151962.59;1744735;80;20437;-59
2022/11/02 10:19:45;;;;;;;20.05;11.53;;;;;;;17.20;68.38;151974.33;1793406;77;21524;-65
2022/11/02 10:22:14;;;;;;;20.37;11.50;;;;;;;17.28;67.84;151995.17;1789155;77;22148;-66
2022/11/02 10:24:43;;;;;;;21.77;11.40;;;;;;;17.32;67.72;152005.59;1802182;78;21538;-65
2022/11/02 10:27:18;;;;;;;29.02;11.83;;;;;;;17.37;67.63;152018.67;1821027;76;21469;-64
2022/11/02 10:29:59;;;;;;;23.52;10.78;;;;;;;17.43;67.38;152032.98;1772900;80;20980;-65
2022/11/02 10:32:26;;;;;;;26.25;12.43;;;;;;;17.47;67.16;152043.45;1789221;79;21095;-64
2022/11/02 10:34:53;;;;;;;22.80;11.12;;;;;;;17.54;66.83;152061.69;1782988;78;21894;-64
2022/11/02 10:37:41;;;;;;;22.07;11.20;;;;;;;17.60;66.33;152076.05;1777557;80;21027;-64
2022/11/02 10:40:47;;;;;;;20.32;11.12;;;;;;;17.66;66.10;152091.69;1793759;78;21029;-64
2022/11/02 10:43:48;;;;;;;19.70;11.18;;;;;;;17.72;65.47;152106.03;1792788;78;20991;-66
2022/11/02 10:46:43;;;;;;;26.37;11.05;;;;;;;17.75;64.90;152115.13;1782956;80;21499;-64
2022/11/02 10:49:40;;;;;;;22.45;10.45;;;;;;;17.78;64.46;152120.34;1786637;78;21366;-64
2022/11/02 10:52:13;;;;;;;20.62;10.43;;;;;;;17.78;64.39;152120.34;1657869;80;21042;-60
2022/11/02 10:54:40;;;;;;;21.77;10.03;;;;;;;17.78;64.30;152120.34;1816377;78;21353;-62
2022/11/02 10:57:13;;;;;;;24.60;10.30;;;;;;;17.78;64.27;152120.34;1818867;78;21099;-59
2022/11/02 10:59:40;;;;;;;20.72;10.13;;;;;;;17.80;64.47;152125.61;1818149;78;21044;-61
2022/11/02 11:02:13;;;;;;;25.12;9.70;;;;;;;17.84;64.27;152136.03;1794501;79;21124;-60
2022/11/02 11:04:42;;;;;;;20.88;9.55;;;;;;;17.88;64.28;152147.73;1753782;79;21542;-61
2022/11/02 11:07:25;;;;;;;18.25;9.15;;;;;;;17.92;63.94;152156.88;1788973;80;21431;-61
2022/11/02 11:09:55;;;;;;;23.15;10.28;;;;;;;17.97;63.71;152168.63;1788463;79;20984;-60
2022/11/02 11:12:31;;;;;;;20.30;9.83;;;;;;;18.01;63.37;152180.39;1783847;79;21056;-60
2022/11/02 11:14:59;;;;;;;22.70;9.58;;;;;;;18.09;63.21;152198.69;1813853;78;21526;-61
2022/11/02 11:17:34;;;;;;;19.37;9.85;;;;;;;18.14;63.08;152211.72;1794014;79;21922;-61
2022/11/02 11:20:04;;;;;;;20.55;9.60;;;;;;;18.15;62.87;152215.66;1762914;81;21571;-60
2022/11/02 11:22:38;;;;;;;17.77;10.23;;;;;;;18.17;62.67;152219.53;1775809;79;21025;-61
2022/11/02 11:25:26;;;;;;;18.77;9.65;;;;;;;18.21;62.40;152229.97;1770135;79;21086;-62
2022/11/02 11:27:56;;;;;;;20.25;9.35;;;;;;;18.22;61.50;152232.56;1746734;81;22032;-61
2022/11/02 11:30:32;;;;;;;19.90;10.10;;;;;;;18.23;61.49;152235.17;1753904;81;21609;-61
2022/11/02 11:33:00;;;;;;;21.10;9.97;;;;;;;18.24;61.48;152237.83;1752105;80;21025;-60
2022/11/02 11:35:37;;;;;;;23.98;10.05;;;;;;;18.21;61.39;152229.97;1778915;79;21030;-61
2022/11/02 11:38:19;;;;;;;18.85;9.95;;;;;;;18.24;61.26;152236.50;1774905;78;21061;-60
2022/11/02 11:40:54;;;;;;;22.22;10.28;;;;;;;18.25;61.16;152240.44;1783199;79;21262;-60
2022/11/02 11:43:28;;;;;;;23.83;11.03;;;;;;;18.25;61.19;152240.44;1782090;79;21060;-60
2022/11/02 11:45:59;;;;;;;24.70;10.50;;;;;;;18.25;61.15;152239.11;1787248;79;21086;-59
2022/11/02 11:48:44;;;;;;;20.70;10.30;;;;;;;18.22;61.09;152232.56;1780177;79;21032;-59
2022/11/02 11:51:31;;;;;;;24.35;11.63;;;;;;;18.18;61.42;152222.14;1789672;79;21056;-59
2022/11/02 11:54:23;;;;;;;23.12;12.05;;;;;;;18.16;61.43;152216.92;1782498;79;21289;-61
2022/11/02 11:56:57;;;;;;;21.07;11.00;;;;;;;18.13;61.64;152210.44;1783027;79;21068;-59